sensor_id;sensor_type;location;lat;lon;timestamp;temperature;humidity
44111;DHT22;29774;52.664;5.074;2022-11-18T00:01:12;9.60;88.60
44111;DHT22;29774;52.664;5.074;2022-11-18T00:03:38;9.60;88.90
44111;DHT22;29774;52.664;5.074;2022-11-18T00:06:05;9.60;87.80
44111;DHT22;29774;52.664;5.074;2022-11-18T00:08:31;9.70;89.00
44111;DHT22;29774;52.664;5.074;2022-11-18T00:10:57;9.70;88.80
44111;DHT22;29774;52.664;5.074;2022-11-18T00:13:23;9.60;87.70
44111;DHT22;29774;52.664;5.074;2022-11-18T00:16:09;9.80;87.90
44111;DHT22;29774;52.664;5.074;2022-11-18T00:18:36;9.70;87.60
44111;DHT22;29774;52.664;5.074;2022-11-18T00:21:07;9.80;87.30
44111;DHT22;29774;52.664;5.074;2022-11-18T00:23:34;9.90;88.70
44111;DHT22;29774;52.664;5.074;2022-11-18T00:26:13;10.30;87.60
44111;DHT22;29774;52.664;5.074;2022-11-18T00:28:39;9.80;87.00
44111;DHT22;29774;52.664;5.074;2022-11-18T00:31:08;9.90;87.40
44111;DHT22;29774;52.664;5.074;2022-11-18T00:33:34;9.90;87.90
44111;DHT22;29774;52.664;5.074;2022-11-18T00:36:02;9.50;88.10
44111;DHT22;29774;52.664;5.074;2022-11-18T00:38:28;9.80;87.50
44111;DHT22;29774;52.664;5.074;2022-11-18T00:41:07;9.40;88.20
44111;DHT22;29774;52.664;5.074;2022-11-18T00:43:33;9.80;88.50
44111;DHT22;29774;52.664;5.074;2022-11-18T00:45:59;9.50;88.40
44111;DHT22;29774;52.664;5.074;2022-11-18T00:48:25;9.70;88.40
44111;DHT22;29774;52.664;5.074;2022-11-18T00:50:53;9.30;88.50
44111;DHT22;29774;52.664;5.074;2022-11-18T00:53:20;9.50;88.70
44111;DHT22;29774;52.664;5.074;2022-11-18T00:55:45;9.20;89.00
44111;DHT22;29774;52.664;5.074;2022-11-18T00:58:11;9.20;89.40
44111;DHT22;29774;52.664;5.074;2022-11-18T01:00:43;9.50;89.50
44111;DHT22;29774;52.664;5.074;2022-11-18T01:03:10;9.20;90.00
44111;DHT22;29774;52.664;5.074;2022-11-18T01:05:36;9.30;89.70
44111;DHT22;29774;52.664;5.074;2022-11-18T01:08:03;9.70;89.40
44111;DHT22;29774;52.664;5.074;2022-11-18T01:10:29;9.50;88.30
44111;DHT22;29774;52.664;5.074;2022-11-18T01:12:54;10.00;88.90
44111;DHT22;29774;52.664;5.074;2022-11-18T01:15:40;9.80;88.90
44111;DHT22;29774;52.664;5.074;2022-11-18T01:18:05;9.50;89.20
44111;DHT22;29774;52.664;5.074;2022-11-18T01:20:32;9.40;88.70
44111;DHT22;29774;52.664;5.074;2022-11-18T01:22:58;9.30;89.10
44111;DHT22;29774;52.664;5.074;2022-11-18T01:25:23;9.30;89.70
44111;DHT22;29774;52.664;5.074;2022-11-18T01:27:49;9.10;89.70
44111;DHT22;29774;52.664;5.074;2022-11-18T01:30:14;9.30;89.40
44111;DHT22;29774;52.664;5.074;2022-11-18T01:32:41;9.40;89.20
44111;DHT22;29774;52.664;5.074;2022-11-18T01:35:08;9.20;89.70
44111;DHT22;29774;52.664;5.074;2022-11-18T01:37:33;9.20;89.80
44111;DHT22;29774;52.664;5.074;2022-11-18T01:39:59;9.30;90.40
44111;DHT22;29774;52.664;5.074;2022-11-18T01:42:24;9.40;89.80
44111;DHT22;29774;52.664;5.074;2022-11-18T01:45:05;9.10;88.90
44111;DHT22;29774;52.664;5.074;2022-11-18T01:47:38;9.00;90.20
44111;DHT22;29774;52.664;5.074;2022-11-18T01:50:05;9.10;90.90
44111;DHT22;29774;52.664;5.074;2022-11-18T01:52:32;9.20;90.90
44111;DHT22;29774;52.664;5.074;2022-11-18T01:55:03;9.20;89.70
44111;DHT22;29774;52.664;5.074;2022-11-18T01:57:29;9.10;89.60
44111;DHT22;29774;52.664;5.074;2022-11-18T01:59:58;9.20;89.20
44111;DHT22;29774;52.664;5.074;2022-11-18T02:02:26;9.10;89.00
44111;DHT22;29774;52.664;5.074;2022-11-18T02:04:52;9.00;90.40
44111;DHT22;29774;52.664;5.074;2022-11-18T02:07:19;8.90;90.70
44111;DHT22;29774;52.664;5.074;2022-11-18T02:09:46;8.70;90.20
44111;DHT22;29774;52.664;5.074;2022-11-18T02:12:12;8.80;90.50
44111;DHT22;29774;52.664;5.074;2022-11-18T02:14:42;8.70;90.60
44111;DHT22;29774;52.664;5.074;2022-11-18T02:17:39;8.70;90.90
44111;DHT22;29774;52.664;5.074;2022-11-18T02:20:22;8.80;90.80
44111;DHT22;29774;52.664;5.074;2022-11-18T02:28:58;8.70;90.60
44111;DHT22;29774;52.664;5.074;2022-11-18T02:31:38;8.60;90.50
44111;DHT22;29774;52.664;5.074;2022-11-18T02:34:10;8.70;91.10
44111;DHT22;29774;52.664;5.074;2022-11-18T02:37:05;8.60;91.00
44111;DHT22;29774;52.664;5.074;2022-11-18T02:39:38;8.60;91.40
44111;DHT22;29774;52.664;5.074;2022-11-18T02:42:10;8.60;91.00
44111;DHT22;29774;52.664;5.074;2022-11-18T02:44:39;8.50;91.50
44111;DHT22;29774;52.664;5.074;2022-11-18T02:47:08;8.40;91.50
44111;DHT22;29774;52.664;5.074;2022-11-18T02:49:42;8.70;91.60
44111;DHT22;29774;52.664;5.074;2022-11-18T02:52:11;8.40;91.70
44111;DHT22;29774;52.664;5.074;2022-11-18T02:54:40;8.70;91.20
44111;DHT22;29774;52.664;5.074;2022-11-18T02:57:06;8.50;91.70
44111;DHT22;29774;52.664;5.074;2022-11-18T02:59:32;8.50;91.70
44111;DHT22;29774;52.664;5.074;2022-11-18T03:01:58;8.50;91.50
44111;DHT22;29774;52.664;5.074;2022-11-18T03:04:25;8.40;91.60
44111;DHT22;29774;52.664;5.074;2022-11-18T03:07:15;8.30;92.10
44111;DHT22;29774;52.664;5.074;2022-11-18T03:09:45;8.50;92.60
44111;DHT22;29774;52.664;5.074;2022-11-18T03:25:08;8.50;91.80
44111;DHT22;29774;52.664;5.074;2022-11-18T03:30:11;8.70;91.00
44111;DHT22;29774;52.664;5.074;2022-11-18T03:32:42;8.60;91.80
44111;DHT22;29774;52.664;5.074;2022-11-18T03:35:15;8.50;91.10
44111;DHT22;29774;52.664;5.074;2022-11-18T03:37:43;8.90;91.30
44111;DHT22;29774;52.664;5.074;2022-11-18T03:40:19;8.80;90.40
44111;DHT22;29774;52.664;5.074;2022-11-18T03:42:50;8.50;91.20
44111;DHT22;29774;52.664;5.074;2022-11-18T03:45:44;8.40;92.00
44111;DHT22;29774;52.664;5.074;2022-11-18T03:48:17;8.60;91.60
44111;DHT22;29774;52.664;5.074;2022-11-18T03:51:05;8.70;90.90
44111;DHT22;29774;52.664;5.074;2022-11-18T03:53:33;8.40;91.40
44111;DHT22;29774;52.664;5.074;2022-11-18T03:56:05;8.30;92.10
44111;DHT22;29774;52.664;5.074;2022-11-18T03:58:40;8.30;92.30
44111;DHT22;29774;52.664;5.074;2022-11-18T04:01:20;8.10;92.60
44111;DHT22;29774;52.664;5.074;2022-11-18T04:03:46;8.20;92.80
44111;DHT22;29774;52.664;5.074;2022-11-18T04:06:30;8.40;92.40
44111;DHT22;29774;52.664;5.074;2022-11-18T04:09:01;8.30;92.00
44111;DHT22;29774;52.664;5.074;2022-11-18T04:11:31;8.60;92.70
44111;DHT22;29774;52.664;5.074;2022-11-18T04:14:18;8.50;91.90
44111;DHT22;29774;52.664;5.074;2022-11-18T04:16:49;8.10;92.10
44111;DHT22;29774;52.664;5.074;2022-11-18T04:19:15;8.10;92.60
44111;DHT22;29774;52.664;5.074;2022-11-18T04:21:40;8.20;92.10
44111;DHT22;29774;52.664;5.074;2022-11-18T04:24:06;8.10;92.60
44111;DHT22;29774;52.664;5.074;2022-11-18T04:26:32;8.00;92.50
44111;DHT22;29774;52.664;5.074;2022-11-18T04:28:57;8.30;92.30
44111;DHT22;29774;52.664;5.074;2022-11-18T04:31:23;8.10;92.20
44111;DHT22;29774;52.664;5.074;2022-11-18T04:33:48;8.10;92.70
44111;DHT22;29774;52.664;5.074;2022-11-18T04:36:14;7.90;92.80
44111;DHT22;29774;52.664;5.074;2022-11-18T04:38:39;8.00;93.10
44111;DHT22;29774;52.664;5.074;2022-11-18T04:41:05;8.10;93.10
44111;DHT22;29774;52.664;5.074;2022-11-18T04:43:31;7.90;92.90
44111;DHT22;29774;52.664;5.074;2022-11-18T04:45:57;7.80;93.10
44111;DHT22;29774;52.664;5.074;2022-11-18T04:48:22;7.90;93.20
44111;DHT22;29774;52.664;5.074;2022-11-18T04:50:48;7.90;93.30
44111;DHT22;29774;52.664;5.074;2022-11-18T04:53:13;7.90;93.20
44111;DHT22;29774;52.664;5.074;2022-11-18T04:55:39;7.90;93.10
44111;DHT22;29774;52.664;5.074;2022-11-18T04:58:05;8.10;92.60
44111;DHT22;29774;52.664;5.074;2022-11-18T05:00:30;7.80;92.80
44111;DHT22;29774;52.664;5.074;2022-11-18T05:02:56;7.80;93.10
44111;DHT22;29774;52.664;5.074;2022-11-18T05:05:21;8.00;93.10
44111;DHT22;29774;52.664;5.074;2022-11-18T05:07:47;7.90;93.10
44111;DHT22;29774;52.664;5.074;2022-11-18T05:10:12;7.80;93.10
44111;DHT22;29774;52.664;5.074;2022-11-18T05:12:38;7.80;93.10
44111;DHT22;29774;52.664;5.074;2022-11-18T05:15:18;8.00;92.90
44111;DHT22;29774;52.664;5.074;2022-11-18T05:17:44;8.10;92.50
44111;DHT22;29774;52.664;5.074;2022-11-18T05:20:10;8.40;92.50
44111;DHT22;29774;52.664;5.074;2022-11-18T05:22:36;8.20;92.40
44111;DHT22;29774;52.664;5.074;2022-11-18T05:25:03;8.40;92.70
44111;DHT22;29774;52.664;5.074;2022-11-18T05:27:28;8.20;92.00
44111;DHT22;29774;52.664;5.074;2022-11-18T05:29:54;8.20;91.80
44111;DHT22;29774;52.664;5.074;2022-11-18T05:32:19;8.00;92.50
44111;DHT22;29774;52.664;5.074;2022-11-18T05:34:45;8.10;92.70
44111;DHT22;29774;52.664;5.074;2022-11-18T05:37:11;8.00;92.60
44111;DHT22;29774;52.664;5.074;2022-11-18T05:39:36;7.90;92.60
44111;DHT22;29774;52.664;5.074;2022-11-18T05:42:02;7.70;93.00
44111;DHT22;29774;52.664;5.074;2022-11-18T05:44:46;7.70;93.20
44111;DHT22;29774;52.664;5.074;2022-11-18T05:47:12;7.70;93.30
44111;DHT22;29774;52.664;5.074;2022-11-18T05:49:38;7.80;93.30
44111;DHT22;29774;52.664;5.074;2022-11-18T05:52:04;7.70;93.30
44111;DHT22;29774;52.664;5.074;2022-11-18T05:54:30;8.00;93.20
44111;DHT22;29774;52.664;5.074;2022-11-18T05:56:55;7.90;93.00
44111;DHT22;29774;52.664;5.074;2022-11-18T05:59:21;7.90;93.10
44111;DHT22;29774;52.664;5.074;2022-11-18T06:04:49;7.90;93.20
44111;DHT22;29774;52.664;5.074;2022-11-18T06:07:24;7.80;93.20
44111;DHT22;29774;52.664;5.074;2022-11-18T06:09:54;7.90;93.40
44111;DHT22;29774;52.664;5.074;2022-11-18T06:12:22;7.90;93.00
44111;DHT22;29774;52.664;5.074;2022-11-18T06:14:52;8.00;93.10
44111;DHT22;29774;52.664;5.074;2022-11-18T06:17:23;7.80;93.40
44111;DHT22;29774;52.664;5.074;2022-11-18T06:19:50;7.90;93.50
44111;DHT22;29774;52.664;5.074;2022-11-18T06:22:16;8.10;93.80
44111;DHT22;29774;52.664;5.074;2022-11-18T06:24:42;8.20;93.30
44111;DHT22;29774;52.664;5.074;2022-11-18T06:27:08;8.00;92.90
44111;DHT22;29774;52.664;5.074;2022-11-18T06:29:34;8.00;93.20
44111;DHT22;29774;52.664;5.074;2022-11-18T06:32:00;8.00;93.20
44111;DHT22;29774;52.664;5.074;2022-11-18T06:34:25;8.10;93.00
44111;DHT22;29774;52.664;5.074;2022-11-18T06:36:51;8.00;93.10
44111;DHT22;29774;52.664;5.074;2022-11-18T06:39:16;8.00;92.90
44111;DHT22;29774;52.664;5.074;2022-11-18T06:41:42;8.20;93.40
44111;DHT22;29774;52.664;5.074;2022-11-18T06:44:10;8.00;92.90
44111;DHT22;29774;52.664;5.074;2022-11-18T06:46:36;8.10;93.50
44111;DHT22;29774;52.664;5.074;2022-11-18T06:49:20;8.20;93.00
44111;DHT22;29774;52.664;5.074;2022-11-18T06:51:46;8.00;93.10
44111;DHT22;29774;52.664;5.074;2022-11-18T06:54:11;7.90;93.40
44111;DHT22;29774;52.664;5.074;2022-11-18T06:56:37;7.90;93.60
44111;DHT22;29774;52.664;5.074;2022-11-18T06:59:03;7.90;93.80
44111;DHT22;29774;52.664;5.074;2022-11-18T07:01:30;8.00;93.70
44111;DHT22;29774;52.664;5.074;2022-11-18T07:03:58;8.10;93.60
44111;DHT22;29774;52.664;5.074;2022-11-18T07:06:26;8.10;93.70
44111;DHT22;29774;52.664;5.074;2022-11-18T07:08:52;8.00;93.80
44111;DHT22;29774;52.664;5.074;2022-11-18T07:11:21;8.10;93.90
44111;DHT22;29774;52.664;5.074;2022-11-18T07:13:47;8.20;93.90
44111;DHT22;29774;52.664;5.074;2022-11-18T07:16:15;8.20;94.00
44111;DHT22;29774;52.664;5.074;2022-11-18T07:18:42;8.30;94.00
44111;DHT22;29774;52.664;5.074;2022-11-18T07:21:10;8.30;93.80
44111;DHT22;29774;52.664;5.074;2022-11-18T07:23:36;8.40;93.90
44111;DHT22;29774;52.664;5.074;2022-11-18T07:26:02;8.40;93.60
44111;DHT22;29774;52.664;5.074;2022-11-18T07:28:29;8.30;93.70
44111;DHT22;29774;52.664;5.074;2022-11-18T07:31:08;8.30;93.90
44111;DHT22;29774;52.664;5.074;2022-11-18T07:33:35;8.30;93.90
44111;DHT22;29774;52.664;5.074;2022-11-18T07:36:06;8.30;94.00
44111;DHT22;29774;52.664;5.074;2022-11-18T07:38:32;8.50;93.90
44111;DHT22;29774;52.664;5.074;2022-11-18T07:41:09;8.60;93.90
44111;DHT22;29774;52.664;5.074;2022-11-18T07:43:37;8.50;93.60
44111;DHT22;29774;52.664;5.074;2022-11-18T07:48:42;8.70;93.60
44111;DHT22;29774;52.664;5.074;2022-11-18T07:51:08;8.60;93.30
44111;DHT22;29774;52.664;5.074;2022-11-18T07:53:35;8.60;93.40
44111;DHT22;29774;52.664;5.074;2022-11-18T07:56:01;9.00;93.40
44111;DHT22;29774;52.664;5.074;2022-11-18T07:58:26;8.80;92.70
44111;DHT22;29774;52.664;5.074;2022-11-18T08:00:52;8.70;93.10
44111;DHT22;29774;52.664;5.074;2022-11-18T08:03:18;8.60;93.30
44111;DHT22;29774;52.664;5.074;2022-11-18T08:05:43;8.60;93.30
44111;DHT22;29774;52.664;5.074;2022-11-18T08:08:09;8.80;93.30
44111;DHT22;29774;52.664;5.074;2022-11-18T08:10:35;8.80;92.90
44111;DHT22;29774;52.664;5.074;2022-11-18T08:13:02;8.70;93.10
44111;DHT22;29774;52.664;5.074;2022-11-18T08:15:28;8.70;93.30
44111;DHT22;29774;52.664;5.074;2022-11-18T08:17:53;8.90;93.00
44111;DHT22;29774;52.664;5.074;2022-11-18T08:20:19;8.70;92.90
44111;DHT22;29774;52.664;5.074;2022-11-18T08:22:45;8.70;93.10
44111;DHT22;29774;52.664;5.074;2022-11-18T08:25:10;8.80;93.10
44111;DHT22;29774;52.664;5.074;2022-11-18T08:27:36;8.70;93.20
44111;DHT22;29774;52.664;5.074;2022-11-18T08:30:01;8.70;93.40
44111;DHT22;29774;52.664;5.074;2022-11-18T08:32:27;8.90;93.50
44111;DHT22;29774;52.664;5.074;2022-11-18T08:34:53;8.80;93.30
44111;DHT22;29774;52.664;5.074;2022-11-18T08:37:18;8.90;93.50
44111;DHT22;29774;52.664;5.074;2022-11-18T08:39:44;8.80;93.30
44111;DHT22;29774;52.664;5.074;2022-11-18T08:42:09;8.80;93.50
44111;DHT22;29774;52.664;5.074;2022-11-18T08:44:35;8.80;93.40
44111;DHT22;29774;52.664;5.074;2022-11-18T08:47:01;8.90;93.20
44111;DHT22;29774;52.664;5.074;2022-11-18T08:49:26;8.80;93.20
44111;DHT22;29774;52.664;5.074;2022-11-18T08:51:53;8.80;93.30
44111;DHT22;29774;52.664;5.074;2022-11-18T08:54:18;8.80;93.30
44111;DHT22;29774;52.664;5.074;2022-11-18T08:56:44;8.90;93.40
44111;DHT22;29774;52.664;5.074;2022-11-18T08:59:12;8.80;93.30
44111;DHT22;29774;52.664;5.074;2022-11-18T09:01:38;8.80;93.40
44111;DHT22;29774;52.664;5.074;2022-11-18T09:04:06;8.80;93.50
44111;DHT22;29774;52.664;5.074;2022-11-18T09:06:32;8.80;93.50
44111;DHT22;29774;52.664;5.074;2022-11-18T09:08:59;8.90;93.40
44111;DHT22;29774;52.664;5.074;2022-11-18T09:11:26;8.90;93.40
44111;DHT22;29774;52.664;5.074;2022-11-18T09:13:57;8.90;93.30
44111;DHT22;29774;52.664;5.074;2022-11-18T09:16:24;9.00;93.10
44111;DHT22;29774;52.664;5.074;2022-11-18T09:18:50;9.00;93.10
44111;DHT22;29774;52.664;5.074;2022-11-18T09:21:16;9.00;93.20
44111;DHT22;29774;52.664;5.074;2022-11-18T09:23:43;9.10;93.10
44111;DHT22;29774;52.664;5.074;2022-11-18T09:26:11;9.00;93.00
44111;DHT22;29774;52.664;5.074;2022-11-18T09:28:37;9.20;93.00
44111;DHT22;29774;52.664;5.074;2022-11-18T09:31:04;9.10;92.60
44111;DHT22;29774;52.664;5.074;2022-11-18T09:33:30;9.10;92.70
44111;DHT22;29774;52.664;5.074;2022-11-18T09:35:56;9.10;92.80
44111;DHT22;29774;52.664;5.074;2022-11-18T09:38:21;9.20;92.40
44111;DHT22;29774;52.664;5.074;2022-11-18T09:41:03;9.10;92.80
44111;DHT22;29774;52.664;5.074;2022-11-18T09:49:02;9.20;93.10
44111;DHT22;29774;52.664;5.074;2022-11-18T09:51:44;9.30;92.80
44111;DHT22;29774;52.664;5.074;2022-11-18T09:54:19;9.50;92.50
44111;DHT22;29774;52.664;5.074;2022-11-18T09:56:45;9.50;92.40
44111;DHT22;29774;52.664;5.074;2022-11-18T09:59:12;9.50;92.00
44111;DHT22;29774;52.664;5.074;2022-11-18T10:01:40;9.60;91.90
44111;DHT22;29774;52.664;5.074;2022-11-18T10:04:13;9.60;91.80
44111;DHT22;29774;52.664;5.074;2022-11-18T10:06:40;9.90;90.40
44111;DHT22;29774;52.664;5.074;2022-11-18T10:15:02;9.70;90.60
44111;DHT22;29774;52.664;5.074;2022-11-18T10:21:01;9.80;90.20
44111;DHT22;29774;52.664;5.074;2022-11-18T10:26:06;9.70;90.90
44111;DHT22;29774;52.664;5.074;2022-11-18T10:28:31;9.70;91.20
44111;DHT22;29774;52.664;5.074;2022-11-18T10:31:10;9.80;90.50
44111;DHT22;29774;52.664;5.074;2022-11-18T10:33:37;9.80;90.70
44111;DHT22;29774;52.664;5.074;2022-11-18T10:36:25;9.90;90.60
44111;DHT22;29774;52.664;5.074;2022-11-18T10:39:14;10.00;89.20
44111;DHT22;29774;52.664;5.074;2022-11-18T10:41:45;9.90;89.30
44111;DHT22;29774;52.664;5.074;2022-11-18T10:46:52;10.00;89.30
44111;DHT22;29774;52.664;5.074;2022-11-18T10:49:17;9.80;90.30
44111;DHT22;29774;52.664;5.074;2022-11-18T10:52:04;9.90;90.30
44111;DHT22;29774;52.664;5.074;2022-11-18T10:54:30;10.10;89.60
44111;DHT22;29774;52.664;5.074;2022-11-18T10:57:18;10.20;87.90
44111;DHT22;29774;52.664;5.074;2022-11-18T10:59:49;10.00;88.90
44111;DHT22;29774;52.664;5.074;2022-11-18T11:05:15;10.10;89.30
44111;DHT22;29774;52.664;5.074;2022-11-18T11:07:41;9.90;89.40
44111;DHT22;29774;52.664;5.074;2022-11-18T11:13:11;10.00;89.30
44111;DHT22;29774;52.664;5.074;2022-11-18T11:15:41;10.00;89.70
44111;DHT22;29774;52.664;5.074;2022-11-18T11:18:36;10.00;90.10
44111;DHT22;29774;52.664;5.074;2022-11-18T11:23:38;11.40;89.40
44111;DHT22;29774;52.664;5.074;2022-11-18T11:39:58;10.20;89.00
44111;DHT22;29774;52.664;5.074;2022-11-18T11:56:37;10.20;89.80
44111;DHT22;29774;52.664;5.074;2022-11-18T12:07:06;10.40;89.80
44111;DHT22;29774;52.664;5.074;2022-11-18T12:10:01;10.30;89.70
44111;DHT22;29774;52.664;5.074;2022-11-18T12:15:18;10.40;89.10
44111;DHT22;29774;52.664;5.074;2022-11-18T12:18:03;10.30;89.90
44111;DHT22;29774;52.664;5.074;2022-11-18T12:20:45;10.20;90.00
44111;DHT22;29774;52.664;5.074;2022-11-18T12:23:29;10.30;90.30
44111;DHT22;29774;52.664;5.074;2022-11-18T12:26:00;10.30;90.10
44111;DHT22;29774;52.664;5.074;2022-11-18T12:33:53;10.30;89.30
44111;DHT22;29774;52.664;5.074;2022-11-18T12:36:30;10.30;89.20
44111;DHT22;29774;52.664;5.074;2022-11-18T12:44:28;10.40;89.80
44111;DHT22;29774;52.664;5.074;2022-11-18T12:46:54;10.30;89.40
44111;DHT22;29774;52.664;5.074;2022-11-18T12:51:46;10.40;89.10
44111;DHT22;29774;52.664;5.074;2022-11-18T12:54:31;10.40;89.20
44111;DHT22;29774;52.664;5.074;2022-11-18T12:57:11;10.40;89.50
44111;DHT22;29774;52.664;5.074;2022-11-18T12:59:37;10.40;89.30
44111;DHT22;29774;52.664;5.074;2022-11-18T13:02:25;10.40;89.80
44111;DHT22;29774;52.664;5.074;2022-11-18T13:07:44;10.40;89.50
44111;DHT22;29774;52.664;5.074;2022-11-18T13:10:37;10.30;89.80
44111;DHT22;29774;52.664;5.074;2022-11-18T13:13:04;10.30;89.80
44111;DHT22;29774;52.664;5.074;2022-11-18T13:15:29;10.30;89.90
44111;DHT22;29774;52.664;5.074;2022-11-18T13:18:16;10.20;90.20
44111;DHT22;29774;52.664;5.074;2022-11-18T13:20:56;10.20;90.50
44111;DHT22;29774;52.664;5.074;2022-11-18T13:23:30;10.20;90.80
44111;DHT22;29774;52.664;5.074;2022-11-18T13:26:24;10.20;90.60
44111;DHT22;29774;52.664;5.074;2022-11-18T13:32:02;10.20;89.80
44111;DHT22;29774;52.664;5.074;2022-11-18T13:34:46;10.30;89.50
44111;DHT22;29774;52.664;5.074;2022-11-18T13:37:26;10.20;89.90
44111;DHT22;29774;52.664;5.074;2022-11-18T13:39:52;10.10;90.20
44111;DHT22;29774;52.664;5.074;2022-11-18T13:42:22;10.00;90.40
44111;DHT22;29774;52.664;5.074;2022-11-18T13:47:42;10.00;90.90
44111;DHT22;29774;52.664;5.074;2022-11-18T13:55:13;9.80;91.00
44111;DHT22;29774;52.664;5.074;2022-11-18T13:57:40;9.90;91.00
44111;DHT22;29774;52.664;5.074;2022-11-18T14:00:17;9.90;90.80
44111;DHT22;29774;52.664;5.074;2022-11-18T14:02:49;9.90;90.70
44111;DHT22;29774;52.664;5.074;2022-11-18T14:05:18;9.90;90.60
44111;DHT22;29774;52.664;5.074;2022-11-18T14:10:40;9.90;90.90
44111;DHT22;29774;52.664;5.074;2022-11-18T14:15:43;9.90;90.80
44111;DHT22;29774;52.664;5.074;2022-11-18T14:20:53;9.80;90.60
44111;DHT22;29774;52.664;5.074;2022-11-18T14:23:29;9.90;90.30
44111;DHT22;29774;52.664;5.074;2022-11-18T14:25:56;9.80;90.50
44111;DHT22;29774;52.664;5.074;2022-11-18T14:28:28;9.80;91.10
44111;DHT22;29774;52.664;5.074;2022-11-18T14:31:03;9.70;91.50
44111;DHT22;29774;52.664;5.074;2022-11-18T14:33:35;9.70;92.00
44111;DHT22;29774;52.664;5.074;2022-11-18T14:36:11;9.70;92.30
44111;DHT22;29774;52.664;5.074;2022-11-18T14:38:49;9.70;92.60
44111;DHT22;29774;52.664;5.074;2022-11-18T14:41:18;9.50;92.90
44111;DHT22;29774;52.664;5.074;2022-11-18T14:44:03;9.50;93.30
44111;DHT22;29774;52.664;5.074;2022-11-18T14:46:29;9.50;93.50
44111;DHT22;29774;52.664;5.074;2022-11-18T14:48:55;9.40;93.50
44111;DHT22;29774;52.664;5.074;2022-11-18T14:51:21;9.30;93.60
44111;DHT22;29774;52.664;5.074;2022-11-18T14:53:46;9.40;93.50
44111;DHT22;29774;52.664;5.074;2022-11-18T14:56:29;9.40;93.70
44111;DHT22;29774;52.664;5.074;2022-11-18T14:58:55;9.40;93.90
44111;DHT22;29774;52.664;5.074;2022-11-18T15:01:21;9.30;94.00
44111;DHT22;29774;52.664;5.074;2022-11-18T15:03:52;9.30;94.10
44111;DHT22;29774;52.664;5.074;2022-11-18T15:06:20;9.30;94.20
44111;DHT22;29774;52.664;5.074;2022-11-18T15:08:49;9.20;94.20
44111;DHT22;29774;52.664;5.074;2022-11-18T15:11:14;9.20;94.20
44111;DHT22;29774;52.664;5.074;2022-11-18T15:13:41;9.20;94.20
44111;DHT22;29774;52.664;5.074;2022-11-18T15:16:14;9.10;94.10
44111;DHT22;29774;52.664;5.074;2022-11-18T15:18:41;9.10;94.10
44111;DHT22;29774;52.664;5.074;2022-11-18T15:21:06;9.20;94.10
44111;DHT22;29774;52.664;5.074;2022-11-18T15:23:32;8.90;93.50
44111;DHT22;29774;52.664;5.074;2022-11-18T15:25:58;8.70;93.80
44111;DHT22;29774;52.664;5.074;2022-11-18T15:28:23;8.70;93.80
44111;DHT22;29774;52.664;5.074;2022-11-18T15:30:49;8.70;94.00
44111;DHT22;29774;52.664;5.074;2022-11-18T15:33:14;8.70;93.90
44111;DHT22;29774;52.664;5.074;2022-11-18T15:35:40;8.70;94.00
44111;DHT22;29774;52.664;5.074;2022-11-18T15:38:05;8.50;94.10
44111;DHT22;29774;52.664;5.074;2022-11-18T15:40:31;8.60;93.80
44111;DHT22;29774;52.664;5.074;2022-11-18T15:42:56;8.40;93.90
44111;DHT22;29774;52.664;5.074;2022-11-18T15:45:22;8.50;93.90
44111;DHT22;29774;52.664;5.074;2022-11-18T15:47:50;8.50;94.10
44111;DHT22;29774;52.664;5.074;2022-11-18T15:50:16;8.40;94.00
44111;DHT22;29774;52.664;5.074;2022-11-18T15:52:42;8.70;93.80
44111;DHT22;29774;52.664;5.074;2022-11-18T15:55:07;8.40;93.80
44111;DHT22;29774;52.664;5.074;2022-11-18T15:57:33;8.30;94.20
44111;DHT22;29774;52.664;5.074;2022-11-18T15:59:59;8.40;94.10
44111;DHT22;29774;52.664;5.074;2022-11-18T16:02:24;8.30;94.00
44111;DHT22;29774;52.664;5.074;2022-11-18T16:05:08;8.40;94.20
44111;DHT22;29774;52.664;5.074;2022-11-18T16:07:34;8.20;94.10
44111;DHT22;29774;52.664;5.074;2022-11-18T16:09:59;8.10;94.10
44111;DHT22;29774;52.664;5.074;2022-11-18T16:12:44;8.20;93.80
44111;DHT22;29774;52.664;5.074;2022-11-18T16:15:14;8.10;93.70
44111;DHT22;29774;52.664;5.074;2022-11-18T16:17:58;8.00;93.80
44111;DHT22;29774;52.664;5.074;2022-11-18T16:20:25;8.10;94.10
44111;DHT22;29774;52.664;5.074;2022-11-18T16:22:50;7.90;94.00
44111;DHT22;29774;52.664;5.074;2022-11-18T16:25:18;7.80;94.20
44111;DHT22;29774;52.664;5.074;2022-11-18T16:27:44;7.80;94.10
44111;DHT22;29774;52.664;5.074;2022-11-18T16:30:10;7.70;94.30
44111;DHT22;29774;52.664;5.074;2022-11-18T16:32:55;7.70;94.50
44111;DHT22;29774;52.664;5.074;2022-11-18T16:35:21;7.70;93.90
44111;DHT22;29774;52.664;5.074;2022-11-18T16:37:47;7.70;94.20
44111;DHT22;29774;52.664;5.074;2022-11-18T16:40:12;7.60;94.00
44111;DHT22;29774;52.664;5.074;2022-11-18T16:42:38;7.60;94.00
44111;DHT22;29774;52.664;5.074;2022-11-18T16:45:04;7.70;93.60
44111;DHT22;29774;52.664;5.074;2022-11-18T16:47:29;7.90;94.00
44111;DHT22;29774;52.664;5.074;2022-11-18T16:49:55;7.60;93.70
44111;DHT22;29774;52.664;5.074;2022-11-18T16:52:39;7.40;94.10
44111;DHT22;29774;52.664;5.074;2022-11-18T16:55:05;7.40;94.30
44111;DHT22;29774;52.664;5.074;2022-11-18T16:57:31;7.50;93.90
44111;DHT22;29774;52.664;5.074;2022-11-18T16:59:56;7.40;94.10
44111;DHT22;29774;52.664;5.074;2022-11-18T17:02:22;7.80;93.90
44111;DHT22;29774;52.664;5.074;2022-11-18T17:04:48;7.70;92.90
44111;DHT22;29774;52.664;5.074;2022-11-18T17:07:14;7.70;92.40
44111;DHT22;29774;52.664;5.074;2022-11-18T17:09:39;7.50;93.20
44111;DHT22;29774;52.664;5.074;2022-11-18T17:12:05;7.50;92.40
44111;DHT22;29774;52.664;5.074;2022-11-18T17:14:31;8.00;93.10
44111;DHT22;29774;52.664;5.074;2022-11-18T17:16:56;7.50;91.90
44111;DHT22;29774;52.664;5.074;2022-11-18T17:19:22;7.20;92.50
44111;DHT22;29774;52.664;5.074;2022-11-18T17:22:20;7.30;92.90
44111;DHT22;29774;52.664;5.074;2022-11-18T17:24:46;7.20;92.40
44111;DHT22;29774;52.664;5.074;2022-11-18T17:27:11;7.20;92.90
44111;DHT22;29774;52.664;5.074;2022-11-18T17:29:38;7.10;93.30
44111;DHT22;29774;52.664;5.074;2022-11-18T17:32:04;7.00;93.50
44111;DHT22;29774;52.664;5.074;2022-11-18T17:34:29;7.10;93.80
44111;DHT22;29774;52.664;5.074;2022-11-18T17:37:15;7.30;93.10
44111;DHT22;29774;52.664;5.074;2022-11-18T17:39:41;7.10;93.20
44111;DHT22;29774;52.664;5.074;2022-11-18T17:42:07;7.10;93.30
44111;DHT22;29774;52.664;5.074;2022-11-18T17:44:38;7.00;93.40
44111;DHT22;29774;52.664;5.074;2022-11-18T17:47:04;7.00;93.20
44111;DHT22;29774;52.664;5.074;2022-11-18T17:49:29;7.30;92.70
44111;DHT22;29774;52.664;5.074;2022-11-18T17:51:55;7.40;92.10
44111;DHT22;29774;52.664;5.074;2022-11-18T17:54:21;7.20;92.40
44111;DHT22;29774;52.664;5.074;2022-11-18T17:56:46;7.50;92.50
44111;DHT22;29774;52.664;5.074;2022-11-18T17:59:12;7.10;92.50
44111;DHT22;29774;52.664;5.074;2022-11-18T18:01:39;7.00;92.60
44111;DHT22;29774;52.664;5.074;2022-11-18T18:04:05;7.10;92.70
44111;DHT22;29774;52.664;5.074;2022-11-18T18:06:49;7.20;92.60
44111;DHT22;29774;52.664;5.074;2022-11-18T18:09:18;7.10;92.40